Time;durP1;ratioP1;P1;durP2;ratioP2;P2;SDS_P1;SDS_P2;PMS_P1;PMS_P2;Temp;Humidity;BMP_temperature;BMP_pressure;BME280_temperature;BME280_humidity;BME280_pressure;Samples;Min_cycle;Max_cycle;Signal;HPM_P1;HPM_P2
2023/04/05 00:00:47;;;;;;;;;;;3.90;99.90;;;;;;2057388;28;19906;-74
2023/04/05 00:01:49;;;;;;;;;;;3.90;99.90;;;;;;2057880;28;19917;-74
2023/04/05 00:02:49;;;;;;;;;;;3.90;99.90;;;;;;2065764;28;19968;-74
2023/04/05 00:03:50;;;;;;;;;;;3.80;99.90;;;;;;2064963;28;19913;-74
2023/04/05 00:04:56;;;;;;;;;;;3.80;99.90;;;;;;2066862;28;19931;-74
2023/04/05 00:05:57;;;;;;;;;;;3.80;99.90;;;;;;2066311;28;20422;-74
2023/04/05 00:06:58;;;;;;;;;;;3.80;99.90;;;;;;2057967;28;20286;-74
2023/04/05 00:08:00;;;;;;;;;;;3.80;99.90;;;;;;2058513;28;19918;-74
2023/04/05 00:09:02;;;;;;;;;;;3.80;99.90;;;;;;2058540;28;19910;-74
2023/04/05 00:10:03;;;;;;;;;;;3.80;99.90;;;;;;2057543;28;19914;-74
2023/04/05 00:11:03;;;;;;;;;;;3.80;99.90;;;;;;2057943;28;19906;-74
2023/04/05 00:12:04;;;;;;;;;;;3.80;99.90;;;;;;2058145;28;19917;-74
2023/04/05 00:13:05;;;;;;;;;;;3.80;99.90;;;;;;2058311;28;20670;-74
2023/04/05 00:14:05;;;;;;;;;;;3.80;99.90;;;;;;2058345;28;19921;-74
2023/04/05 00:15:06;;;;;;;;;;;3.80;99.90;;;;;;2056852;28;19910;-74
2023/04/05 00:16:07;;;;;;;;;;;3.70;99.90;;;;;;2061279;28;20389;-74
2023/04/05 00:17:07;;;;;;;;;;;3.70;99.90;;;;;;2055512;28;19929;-74
2023/04/05 00:18:20;;;;;;;;;;;3.70;99.90;;;;;;2059278;28;20429;-74
2023/04/05 00:19:23;;;;;;;;;;;3.70;99.90;;;;;;2059527;28;19909;-74
2023/04/05 00:20:24;;;;;;;;;;;3.70;99.90;;;;;;2058747;28;19918;-74
2023/04/05 00:21:25;;;;;;;;;;;3.70;99.90;;;;;;2059480;28;20020;-74
2023/04/05 00:22:25;;;;;;;;;;;3.70;99.90;;;;;;2059456;28;19914;-74
2023/04/05 00:23:26;;;;;;;;;;;3.70;99.90;;;;;;2060956;28;19906;-74
2023/04/05 00:24:28;;;;;;;;;;;3.70;99.90;;;;;;2074726;28;19913;-74
2023/04/05 00:25:28;;;;;;;;;;;3.60;99.90;;;;;;2074488;28;19913;-74
2023/04/05 00:26:29;;;;;;;;;;;3.60;99.90;;;;;;2060485;28;19949;-74
2023/04/05 00:27:29;;;;;;;;;;;3.60;99.90;;;;;;2059461;28;19918;-74
2023/04/05 00:28:30;;;;;;;;;;;3.60;99.90;;;;;;2059067;28;19964;-74
2023/04/05 00:29:30;;;;;;;;;;;3.60;99.90;;;;;;2058334;28;19910;-74
2023/04/05 00:30:32;;;;;;;;;;;3.60;99.90;;;;;;2056403;28;20273;-74
2023/04/05 00:31:32;;;;;;;;;;;3.60;99.90;;;;;;2061835;28;20360;-74
2023/04/05 00:32:33;;;;;;;;;;;3.60;99.90;;;;;;2062877;28;19941;-74
2023/04/05 00:33:34;;;;;;;;;;;3.50;99.90;;;;;;2061582;28;20016;-74
2023/04/05 00:34:34;;;;;;;;;;;3.50;99.90;;;;;;2058776;28;19918;-74
2023/04/05 00:35:35;;;;;;;;;;;3.50;99.90;;;;;;2059270;28;19967;-74
2023/04/05 00:36:35;;;;;;;;;;;3.50;99.90;;;;;;2058476;28;20419;-74
2023/04/05 00:37:35;;;;;;;;;;;3.50;99.90;;;;;;2058968;28;19948;-74
2023/04/05 00:38:36;;;;;;;;;;;3.50;99.90;;;;;;2058089;28;19949;-74
2023/04/05 00:39:37;;;;;;;;;;;3.40;99.90;;;;;;2062135;28;19920;-74
2023/04/05 00:40:37;;;;;;;;;;;3.40;99.90;;;;;;2059105;28;19910;-74
2023/04/05 00:41:39;;;;;;;;;;;3.40;99.90;;;;;;2060961;28;20425;-74
2023/04/05 00:42:39;;;;;;;;;;;3.40;99.90;;;;;;2063193;28;20835;-74
2023/04/05 00:43:40;;;;;;;;;;;3.40;99.90;;;;;;2060103;28;20046;-74
2023/04/05 00:44:40;;;;;;;;;;;3.30;99.90;;;;;;2059975;28;20382;-74
2023/04/05 00:45:41;;;;;;;;;;;3.30;99.90;;;;;;2061677;28;19944;-74
2023/04/05 00:46:41;;;;;;;;;;;3.30;99.90;;;;;;2060313;28;19917;-74
2023/04/05 00:47:42;;;;;;;;;;;3.30;99.90;;;;;;2059916;28;19905;-74
2023/04/05 00:48:43;;;;;;;;;;;3.30;99.90;;;;;;2060044;28;19910;-74
2023/04/05 00:49:44;;;;;;;;;;;3.30;99.90;;;;;;2059907;28;19968;-74
2023/04/05 00:50:47;;;;;;;;;;;3.20;99.90;;;;;;2060350;28;19949;-74
2023/04/05 00:51:48;;;;;;;;;;;3.30;99.90;;;;;;2060621;28;19921;-74
2023/04/05 00:52:49;;;;;;;;;;;3.20;99.90;;;;;;2058732;28;20012;-74
2023/04/05 00:53:51;;;;;;;;;;;3.20;99.90;;;;;;2058216;28;19906;-74
2023/04/05 00:54:52;;;;;;;;;;;3.20;99.90;;;;;;2075345;28;19912;-74
2023/04/05 00:55:52;;;;;;;;;;;3.20;99.90;;;;;;2073020;28;19960;-74
2023/04/05 00:56:54;;;;;;;;;;;3.20;99.90;;;;;;2067317;28;19964;-74
2023/04/05 00:57:55;;;;;;;;;;;3.20;99.90;;;;;;2060682;28;19909;-74
2023/04/05 00:58:55;;;;;;;;;;;3.10;99.90;;;;;;2059189;28;19910;-74
2023/04/05 01:00:00;;;;;;;;;;;3.10;99.90;;;;;;2061664;28;19914;-74
2023/04/05 01:01:08;;;;;;;;;;;3.10;99.90;;;;;;2075475;28;20456;-74
2023/04/05 01:02:18;;;;;;;;;;;3.10;99.90;;;;;;2072966;28;19924;-74
2023/04/05 01:03:19;;;;;;;;;;;3.10;99.90;;;;;;2059596;28;19924;-74
2023/04/05 01:04:22;;;;;;;;;;;3.10;99.90;;;;;;2056738;28;19914;-74
2023/04/05 01:05:23;;;;;;;;;;;3.00;99.90;;;;;;2059379;28;19924;-74
2023/04/05 01:07:02;;;;;;;;;;;3.00;99.90;;;;;;2059311;28;19917;-74
2023/04/05 01:08:17;;;;;;;;;;;3.00;99.90;;;;;;2059190;28;20034;-74
2023/04/05 01:09:25;;;;;;;;;;;3.00;99.90;;;;;;2061533;28;19913;-74
2023/04/05 01:10:30;;;;;;;;;;;2.90;99.90;;;;;;2059158;28;20470;-74
2023/04/05 01:11:31;;;;;;;;;;;2.90;99.90;;;;;;2059936;28;20006;-74
2023/04/05 01:12:32;;;;;;;;;;;2.90;99.90;;;;;;2061964;28;19916;-74
2023/04/05 01:13:32;;;;;;;;;;;2.90;99.90;;;;;;2055003;28;19917;-73
2023/04/05 01:14:43;;;;;;;;;;;2.90;99.90;;;;;;2059204;28;19918;-74
2023/04/05 01:15:43;;;;;;;;;;;2.90;99.90;;;;;;2066891;28;20372;-74
2023/04/05 01:16:44;;;;;;;;;;;2.90;99.90;;;;;;2059292;28;19914;-74
2023/04/05 01:17:45;;;;;;;;;;;2.80;99.90;;;;;;2060560;28;19910;-74
2023/04/05 01:18:46;;;;;;;;;;;2.90;99.90;;;;;;2059161;28;19906;-74
2023/04/05 01:19:47;;;;;;;;;;;2.80;99.90;;;;;;2061261;28;19991;-74
2023/04/05 01:20:52;;;;;;;;;;;2.80;99.90;;;;;;2059936;28;20004;-74
2023/04/05 01:22:15;;;;;;;;;;;2.80;99.90;;;;;;2058612;28;20542;-74
2023/04/05 01:23:29;;;;;;;;;;;2.80;99.90;;;;;;2065085;28;19959;-74
2023/04/05 01:24:45;;;;;;;;;;;2.80;99.90;;;;;;2058580;28;19928;-74
2023/04/05 01:26:04;;;;;;;;;;;2.70;99.90;;;;;;2060017;28;20321;-74
2023/04/05 01:27:23;;;;;;;;;;;2.70;99.90;;;;;;2058290;28;20368;-74
2023/04/05 01:28:30;;;;;;;;;;;2.70;99.90;;;;;;2060189;28;20349;-74
2023/04/05 01:29:30;;;;;;;;;;;2.70;99.90;;;;;;2059216;28;19914;-74
2023/04/05 01:30:34;;;;;;;;;;;2.70;99.90;;;;;;2060613;28;19920;-74
2023/04/05 01:31:44;;;;;;;;;;;2.60;99.90;;;;;;2060218;28;19937;-74
2023/04/05 01:32:50;;;;;;;;;;;2.60;99.90;;;;;;2060682;28;19912;-74
2023/04/05 01:33:56;;;;;;;;;;;2.60;99.90;;;;;;2061566;28;20016;-74
2023/04/05 01:35:15;;;;;;;;;;;2.60;99.90;;;;;;2060595;28;21286;-74
2023/04/05 01:36:26;;;;;;;;;;;2.60;99.90;;;;;;2061401;28;20328;-74
2023/04/05 01:37:29;;;;;;;;;;;2.60;99.90;;;;;;2059787;28;19912;-74
2023/04/05 01:38:30;;;;;;;;;;;2.60;99.90;;;;;;2061731;28;20373;-74
2023/04/05 01:39:33;;;;;;;;;;;2.50;99.90;;;;;;2059904;28;19920;-74
2023/04/05 01:40:34;;;;;;;;;;;2.50;99.90;;;;;;2058445;28;19996;-74
2023/04/05 01:41:35;;;;;;;;;;;2.50;99.90;;;;;;2058310;28;19913;-74
2023/04/05 01:42:35;;;;;;;;;;;2.50;99.90;;;;;;2058868;28;19969;-74
2023/04/05 01:43:36;;;;;;;;;;;2.50;99.90;;;;;;2057967;28;19913;-74
2023/04/05 01:44:36;;;;;;;;;;;2.50;99.90;;;;;;2062200;28;19954;-74
2023/04/05 01:45:37;;;;;;;;;;;2.50;99.90;;;;;;2061320;28;20008;-74
2023/04/05 01:46:37;;;;;;;;;;;2.50;99.90;;;;;;2060403;28;19910;-74
2023/04/05 01:47:38;;;;;;;;;;;2.50;99.90;;;;;;2067016;28;19910;-74
2023/04/05 01:48:38;;;;;;;;;;;2.50;99.90;;;;;;2065353;28;19921;-74
2023/04/05 01:49:39;;;;;;;;;;;2.40;99.90;;;;;;2059452;28;19972;-74
2023/04/05 01:50:39;;;;;;;;;;;2.40;99.90;;;;;;2057410;28;20262;-74
2023/04/05 01:51:40;;;;;;;;;;;2.40;99.90;;;;;;2058885;28;19917;-74
2023/04/05 01:52:41;;;;;;;;;;;2.40;99.90;;;;;;2060017;28;19937;-74
2023/04/05 01:53:41;;;;;;;;;;;2.40;99.90;;;;;;2060948;28;20009;-74
2023/04/05 01:54:42;;;;;;;;;;;2.40;99.90;;;;;;2059605;28;19917;-74
2023/04/05 01:55:42;;;;;;;;;;;2.40;99.90;;;;;;2061505;28;19963;-74
2023/04/05 01:56:43;;;;;;;;;;;2.40;99.90;;;;;;2061956;28;19926;-74
2023/04/05 01:57:44;;;;;;;;;;;2.40;99.90;;;;;;2059880;28;19925;-74
2023/04/05 01:58:44;;;;;;;;;;;2.40;99.90;;;;;;2060926;28;19917;-74
2023/04/05 01:59:44;;;;;;;;;;;2.30;99.90;;;;;;2059570;28;20300;-74
2023/04/05 02:00:45;;;;;;;;;;;2.30;99.90;;;;;;2060012;28;19905;-74
2023/04/05 02:01:45;;;;;;;;;;;2.30;99.90;;;;;;2058597;28;20366;-74
2023/04/05 02:02:46;;;;;;;;;;;2.30;99.90;;;;;;2058553;28;19992;-74
2023/04/05 02:03:46;;;;;;;;;;;2.30;99.90;;;;;;2059954;28;19992;-74
2023/04/05 02:04:47;;;;;;;;;;;2.30;99.90;;;;;;2057501;28;20007;-74
2023/04/05 02:05:47;;;;;;;;;;;2.30;99.90;;;;;;2060053;28;20320;-74
2023/04/05 02:06:47;;;;;;;;;;;2.30;99.90;;;;;;2059505;28;19910;-74
2023/04/05 02:07:48;;;;;;;;;;;2.20;99.90;;;;;;2060258;28;19915;-74
2023/04/05 02:08:48;;;;;;;;;;;2.20;99.90;;;;;;2058472;28;20071;-74
2023/04/05 02:09:49;;;;;;;;;;;2.20;99.90;;;;;;2059303;28;19918;-74
2023/04/05 02:10:51;;;;;;;;;;;2.20;99.90;;;;;;2059908;28;20499;-74
2023/04/05 02:11:51;;;;;;;;;;;2.20;99.90;;;;;;2058854;28;19910;-74
2023/04/05 02:12:52;;;;;;;;;;;2.20;99.90;;;;;;2059178;28;19921;-74
2023/04/05 02:13:52;;;;;;;;;;;2.20;99.90;;;;;;2062489;28;19957;-74
2023/04/05 02:14:53;;;;;;;;;;;2.20;99.90;;;;;;2067269;28;20004;-74
2023/04/05 02:15:53;;;;;;;;;;;2.10;99.90;;;;;;2066751;28;20329;-74
2023/04/05 02:16:55;;;;;;;;;;;2.20;99.90;;;;;;2060461;28;19918;-74
2023/04/05 02:17:55;;;;;;;;;;;2.20;99.90;;;;;;2066341;28;20004;-74
2023/04/05 02:18:56;;;;;;;;;;;2.10;99.90;;;;;;2062231;28;19909;-74
2023/04/05 02:20:01;;;;;;;;;;;2.10;99.90;;;;;;2060403;28;20415;-74
2023/04/05 02:21:05;;;;;;;;;;;2.10;99.90;;;;;;2065937;28;20547;-74
2023/04/05 02:22:06;;;;;;;;;;;2.10;99.90;;;;;;2057256;28;20581;-74
2023/04/05 02:23:07;;;;;;;;;;;2.10;99.90;;;;;;2060056;28;19968;-74
2023/04/05 02:24:07;;;;;;;;;;;2.10;99.90;;;;;;2058726;28;20028;-74
2023/04/05 02:25:08;;;;;;;;;;;2.10;99.90;;;;;;2059293;28;19949;-74
2023/04/05 02:26:08;;;;;;;;;;;2.10;99.90;;;;;;2058574;28;19917;-74
2023/04/05 02:27:09;;;;;;;;;;;2.00;99.90;;;;;;2060205;28;19918;-74
2023/04/05 02:28:10;;;;;;;;;;;2.00;99.90;;;;;;2060512;28;19914;-73
2023/04/05 02:29:10;;;;;;;;;;;2.00;99.90;;;;;;2057232;28;19925;-74
2023/04/05 02:30:12;;;;;;;;;;;2.00;99.90;;;;;;2060029;28;20031;-74
2023/04/05 02:31:13;;;;;;;;;;;2.00;99.90;;;;;;2059256;28;20004;-74
2023/04/05 02:32:14;;;;;;;;;;;2.00;99.90;;;;;;2062310;28;19910;-73
2023/04/05 02:33:14;;;;;;;;;;;2.00;99.90;;;;;;2059327;28;20901;-74
2023/04/05 02:34:14;;;;;;;;;;;2.00;99.90;;;;;;2059806;28;20004;-74
2023/04/05 02:35:16;;;;;;;;;;;2.00;99.90;;;;;;2060476;28;19913;-74
2023/04/05 02:36:16;;;;;;;;;;;1.90;99.90;;;;;;2061643;28;19913;-74
2023/04/05 02:37:17;;;;;;;;;;;2.00;99.90;;;;;;2059165;28;19910;-74
2023/04/05 02:38:18;;;;;;;;;;;1.90;99.90;;;;;;2066708;28;20432;-73
2023/04/05 02:39:18;;;;;;;;;;;1.90;99.90;;;;;;2065558;28;20281;-73
2023/04/05 02:40:20;;;;;;;;;;;1.90;99.90;;;;;;2059162;28;19914;-73
2023/04/05 02:41:22;;;;;;;;;;;1.90;99.90;;;;;;2058260;28;19905;-73
2023/04/05 02:42:23;;;;;;;;;;;1.90;99.90;;;;;;2058853;28;19980;-73
2023/04/05 02:43:23;;;;;;;;;;;1.90;99.90;;;;;;2059462;28;19913;-73
2023/04/05 02:44:24;;;;;;;;;;;1.90;99.90;;;;;;2059674;28;20420;-73
2023/04/05 02:45:26;;;;;;;;;;;1.90;99.90;;;;;;2058427;28;19913;-73
2023/04/05 02:46:26;;;;;;;;;;;1.90;99.90;;;;;;2060067;28;20725;-74
2023/04/05 02:47:27;;;;;;;;;;;1.90;99.90;;;;;;2057705;28;20378;-74
2023/04/05 02:48:27;;;;;;;;;;;1.90;99.90;;;;;;2058404;28;19910;-74
2023/04/05 02:49:28;;;;;;;;;;;1.90;99.90;;;;;;2058135;28;20346;-72
2023/04/05 02:50:28;;;;;;;;;;;1.90;99.90;;;;;;2057656;28;19913;-74
2023/04/05 02:51:29;;;;;;;;;;;1.80;99.90;;;;;;2057159;28;19954;-74
2023/04/05 02:52:31;;;;;;;;;;;1.80;99.90;;;;;;2060250;28;19910;-74
2023/04/05 02:53:31;;;;;;;;;;;1.90;99.90;;;;;;2059013;28;19920;-74
2023/04/05 02:54:31;;;;;;;;;;;1.80;99.90;;;;;;2058564;28;19918;-73
2023/04/05 02:55:32;;;;;;;;;;;1.80;99.90;;;;;;2060348;28;19917;-74
2023/04/05 02:56:33;;;;;;;;;;;1.80;99.90;;;;;;2058874;28;19921;-74
2023/04/05 02:57:34;;;;;;;;;;;1.80;99.90;;;;;;2058992;28;20261;-74
2023/04/05 02:58:34;;;;;;;;;;;1.80;99.90;;;;;;2057585;28;19943;-74
2023/04/05 02:59:35;;;;;;;;;;;1.80;99.90;;;;;;2059936;28;19941;-74
2023/04/05 03:00:36;;;;;;;;;;;1.80;99.90;;;;;;2070102;28;19909;-73
2023/04/05 03:01:37;;;;;;;;;;;1.80;99.90;;;;;;2065821;28;19917;-73
2023/04/05 03:02:38;;;;;;;;;;;1.80;99.90;;;;;;2058733;28;19914;-74
2023/04/05 03:03:39;;;;;;;;;;;1.80;99.90;;;;;;2073014;28;19917;-73
2023/04/05 03:04:40;;;;;;;;;;;1.80;99.90;;;;;;2074325;28;19909;-74
2023/04/05 03:05:42;;;;;;;;;;;1.80;99.90;;;;;;2059591;28;19916;-73
2023/04/05 03:06:45;;;;;;;;;;;1.80;99.90;;;;;;2058889;28;19917;-74
2023/04/05 03:07:45;;;;;;;;;;;1.70;99.90;;;;;;2059089;28;20433;-74
2023/04/05 03:08:47;;;;;;;;;;;1.70;99.90;;;;;;2065027;28;19995;-73
2023/04/05 03:09:48;;;;;;;;;;;1.70;99.90;;;;;;2072428;28;19917;-73
2023/04/05 03:10:52;;;;;;;;;;;1.70;99.90;;;;;;2061577;28;19996;-73
2023/04/05 03:11:53;;;;;;;;;;;1.70;99.90;;;;;;2056517;28;19914;-73
2023/04/05 03:12:53;;;;;;;;;;;1.70;99.90;;;;;;2058744;28;19913;-74
2023/04/05 03:13:54;;;;;;;;;;;1.70;99.90;;;;;;2058659;28;19913;-74
2023/04/05 03:14:54;;;;;;;;;;;1.70;99.90;;;;;;2058936;28;19910;-74
2023/04/05 03:15:55;;;;;;;;;;;1.70;99.90;;;;;;2060248;28;20013;-74
2023/04/05 03:16:55;;;;;;;;;;;1.70;99.90;;;;;;2058987;28;20001;-74
2023/04/05 03:17:56;;;;;;;;;;;1.70;99.90;;;;;;2064912;28;20389;-73
2023/04/05 03:18:56;;;;;;;;;;;1.70;99.90;;;;;;2066221;28;19971;-73
2023/04/05 03:19:59;;;;;;;;;;;1.70;99.90;;;;;;2057557;28;20250;-74
2023/04/05 03:21:00;;;;;;;;;;;1.60;99.90;;;;;;2061144;28;19905;-74
2023/04/05 03:22:00;;;;;;;;;;;1.60;99.90;;;;;;2058837;28;20011;-74
2023/04/05 03:23:01;;;;;;;;;;;1.60;99.90;;;;;;2056669;28;19913;-73
2023/04/05 03:24:01;;;;;;;;;;;1.60;99.90;;;;;;2059193;28;19921;-73
2023/04/05 03:25:02;;;;;;;;;;;1.60;99.90;;;;;;2059935;28;19905;-73
2023/04/05 03:26:03;;;;;;;;;;;1.60;99.90;;;;;;2067312;28;19955;-73
2023/04/05 03:27:05;;;;;;;;;;;1.60;99.90;;;;;;2070957;28;19917;-73
2023/04/05 03:28:07;;;;;;;;;;;1.60;99.90;;;;;;2075003;28;20028;-73
2023/04/05 03:29:07;;;;;;;;;;;1.60;99.90;;;;;;2058957;28;20419;-73
2023/04/05 03:30:08;;;;;;;;;;;1.50;99.90;;;;;;2058567;28;20451;-73
2023/04/05 03:31:09;;;;;;;;;;;1.50;99.90;;;;;;2059041;28;19917;-73
2023/04/05 03:32:10;;;;;;;;;;;1.50;99.90;;;;;;2058812;28;19914;-73
2023/04/05 03:33:11;;;;;;;;;;;1.50;99.90;;;;;;2057119;28;19914;-74
2023/04/05 03:34:11;;;;;;;;;;;1.50;99.90;;;;;;2061289;28;21607;-74
2023/04/05 03:35:12;;;;;;;;;;;1.50;99.90;;;;;;2059769;28;19920;-73
2023/04/05 03:36:15;;;;;;;;;;;1.50;99.90;;;;;;2056536;28;19945;-73
2023/04/05 03:37:15;;;;;;;;;;;1.50;99.90;;;;;;2056091;28;19917;-73
2023/04/05 03:38:16;;;;;;;;;;;1.50;99.90;;;;;;2059490;28;20316;-74
2023/04/05 03:39:16;;;;;;;;;;;1.50;99.90;;;;;;2065681;28;19952;-74
2023/04/05 03:40:17;;;;;;;;;;;1.50;99.90;;;;;;2065233;28;19956;-74
2023/04/05 03:41:17;;;;;;;;;;;1.50;99.90;;;;;;2057476;28;20887;-74
2023/04/05 03:42:18;;;;;;;;;;;1.50;99.90;;;;;;2059799;28;20614;-73
2023/04/05 03:43:18;;;;;;;;;;;1.50;99.90;;;;;;2058783;28;19965;-73
2023/04/05 03:44:19;;;;;;;;;;;1.50;99.90;;;;;;2057199;28;19921;-73
2023/04/05 03:45:19;;;;;;;;;;;1.50;99.90;;;;;;2058655;28;19913;-73
2023/04/05 03:46:20;;;;;;;;;;;1.40;99.90;;;;;;2057846;28;19910;-73
2023/04/05 03:47:20;;;;;;;;;;;1.40;99.90;;;;;;2059979;28;19917;-73
2023/04/05 03:48:21;;;;;;;;;;;1.40;99.90;;;;;;2058733;28;19945;-74
2023/04/05 03:49:21;;;;;;;;;;;1.40;99.90;;;;;;2061336;28;20308;-74
2023/04/05 03:50:22;;;;;;;;;;;1.40;99.90;;;;;;2058506;28;19945;-74
2023/04/05 03:51:22;;;;;;;;;;;1.40;99.90;;;;;;2056399;28;19944;-74
2023/04/05 03:52:23;;;;;;;;;;;1.40;99.90;;;;;;2057717;28;19916;-74
2023/04/05 03:53:23;;;;;;;;;;;1.40;99.90;;;;;;2061110;28;19910;-74
2023/04/05 03:54:24;;;;;;;;;;;1.40;99.90;;;;;;2057018;28;19910;-74
2023/04/05 03:55:24;;;;;;;;;;;1.40;99.90;;;;;;2056740;28;20605;-74
2023/04/05 03:56:26;;;;;;;;;;;1.30;99.90;;;;;;2058480;28;19914;-74
2023/04/05 03:57:28;;;;;;;;;;;1.30;99.90;;;;;;2065939;28;19913;-74
2023/04/05 03:58:28;;;;;;;;;;;1.30;99.90;;;;;;2065236;28;19905;-74
2023/04/05 03:59:29;;;;;;;;;;;1.30;99.90;;;;;;2057144;28;19913;-74
2023/04/05 04:00:29;;;;;;;;;;;1.30;99.90;;;;;;2056899;28;19906;-74
2023/04/05 04:01:30;;;;;;;;;;;1.30;99.90;;;;;;2060532;28;19964;-74
2023/04/05 04:02:30;;;;;;;;;;;1.30;99.90;;;;;;2058141;28;20433;-74
2023/04/05 04:03:31;;;;;;;;;;;1.30;99.90;;;;;;2061401;28;19913;-74
2023/04/05 04:04:31;;;;;;;;;;;1.30;99.90;;;;;;2061085;28;19913;-74
2023/04/05 04:05:37;;;;;;;;;;;1.20;99.90;;;;;;2058889;28;19929;-74
2023/04/05 04:06:38;;;;;;;;;;;1.20;99.90;;;;;;2056315;28;19914;-74
2023/04/05 04:07:40;;;;;;;;;;;1.20;99.90;;;;;;2058605;28;19914;-74
2023/04/05 04:08:40;;;;;;;;;;;1.20;99.90;;;;;;2059911;28;19906;-74
2023/04/05 04:09:41;;;;;;;;;;;1.20;99.90;;;;;;2062052;28;19956;-74
2023/04/05 04:10:41;;;;;;;;;;;1.20;99.90;;;;;;2058887;28;19914;-74
2023/04/05 04:11:42;;;;;;;;;;;1.20;99.90;;;;;;2056523;28;19918;-74
2023/04/05 04:12:42;;;;;;;;;;;1.20;99.90;;;;;;2057186;28;20000;-74
2023/04/05 04:13:43;;;;;;;;;;;1.20;99.90;;;;;;2059049;28;19910;-74
2023/04/05 04:14:43;;;;;;;;;;;1.20;99.90;;;;;;2061165;28;19921;-74
2023/04/05 04:15:44;;;;;;;;;;;1.20;99.90;;;;;;2057504;28;20297;-74
2023/04/05 04:16:45;;;;;;;;;;;1.20;99.90;;;;;;2057649;28;19969;-74
2023/04/05 04:17:45;;;;;;;;;;;1.20;99.90;;;;;;2058305;28;19906;-74
2023/04/05 04:18:46;;;;;;;;;;;1.10;99.90;;;;;;2058359;28;19906;-74
2023/04/05 04:19:46;;;;;;;;;;;1.20;99.90;;;;;;2057921;28;19913;-74
2023/04/05 04:20:47;;;;;;;;;;;1.10;99.90;;;;;;2060260;28;19961;-74
2023/04/05 04:21:50;;;;;;;;;;;1.10;99.90;;;;;;2060552;28;20274;-74
2023/04/05 04:22:52;;;;;;;;;;;1.10;99.90;;;;;;2060306;28;19917;-74
2023/04/05 04:23:54;;;;;;;;;;;1.10;99.90;;;;;;2058097;28;19917;-74
2023/04/05 04:24:55;;;;;;;;;;;1.10;99.90;;;;;;2057940;28;19932;-74
2023/04/05 04:25:55;;;;;;;;;;;1.10;99.90;;;;;;2059593;28;19912;-74
2023/04/05 04:26:55;;;;;;;;;;;1.10;99.90;;;;;;2073533;28;19917;-74
2023/04/05 04:27:56;;;;;;;;;;;1.10;99.90;;;;;;2074015;28;19952;-74
2023/04/05 04:28:57;;;;;;;;;;;1.10;99.90;;;;;;2058818;28;20306;-74
2023/04/05 04:30:02;;;;;;;;;;;1.00;99.90;;;;;;2058494;28;20397;-74
2023/04/05 04:31:03;;;;;;;;;;;1.00;99.90;;;;;;2056810;28;19909;-74
2023/04/05 04:32:05;;;;;;;;;;;1.00;99.90;;;;;;2059921;28;19910;-74
2023/04/05 04:33:07;;;;;;;;;;;1.00;99.90;;;;;;2056689;28;20032;-74
2023/04/05 04:34:09;;;;;;;;;;;1.00;99.90;;;;;;2066027;28;19910;-74
2023/04/05 04:35:09;;;;;;;;;;;1.00;99.90;;;;;;2064084;28;20029;-74
2023/04/05 04:36:12;;;;;;;;;;;1.00;99.90;;;;;;2058892;28;19921;-74
2023/04/05 04:37:17;;;;;;;;;;;1.00;99.90;;;;;;2057352;28;20342;-74
2023/04/05 04:38:19;;;;;;;;;;;1.00;99.90;;;;;;2058832;28;19944;-74
2023/04/05 04:39:25;;;;;;;;;;;1.00;99.90;;;;;;2058105;28;20336;-74
2023/04/05 04:40:37;;;;;;;;;;;1.00;99.90;;;;;;2057371;28;19917;-74
2023/04/05 04:41:37;;;;;;;;;;;1.00;99.90;;;;;;2058618;28;19929;-74
2023/04/05 04:42:43;;;;;;;;;;;1.00;99.90;;;;;;2055535;28;20396;-74
2023/04/05 04:43:43;;;;;;;;;;;1.00;99.90;;;;;;2058905;28;20278;-74
2023/04/05 04:44:44;;;;;;;;;;;1.00;99.90;;;;;;2056737;28;19910;-74
2023/04/05 04:45:48;;;;;;;;;;;1.00;99.90;;;;;;2061145;28;19913;-74
2023/04/05 04:46:53;;;;;;;;;;;1.00;99.90;;;;;;2059676;28;19909;-74
2023/04/05 04:47:54;;;;;;;;;;;0.90;99.90;;;;;;2059111;28;20076;-74
2023/04/05 04:48:54;;;;;;;;;;;0.90;99.90;;;;;;2057766;28;19964;-73
2023/04/05 04:49:56;;;;;;;;;;;0.90;99.90;;;;;;2057944;28;19941;-73
2023/04/05 04:50:57;;;;;;;;;;;0.90;99.90;;;;;;2058155;28;19920;-73
2023/04/05 04:51:58;;;;;;;;;;;0.90;99.90;;;;;;2057377;28;20361;-73
2023/04/05 04:52:59;;;;;;;;;;;0.90;99.90;;;;;;2057191;28;20433;-73
2023/04/05 04:54:00;;;;;;;;;;;0.90;99.90;;;;;;2058618;28;20324;-73
2023/04/05 04:55:01;;;;;;;;;;;0.90;99.90;;;;;;2057524;28;20028;-73
2023/04/05 04:56:06;;;;;;;;;;;0.90;99.90;;;;;;2058435;28;19913;-73
2023/04/05 04:57:06;;;;;;;;;;;0.90;99.90;;;;;;2058014;28;19916;-73
2023/04/05 04:58:11;;;;;;;;;;;0.90;99.90;;;;;;2058148;28;19910;-73
2023/04/05 04:59:11;;;;;;;;;;;0.90;99.90;;;;;;2059502;28;20710;-73
2023/04/05 05:00:14;;;;;;;;;;;0.90;99.90;;;;;;2055788;28;20408;-73
2023/04/05 05:01:14;;;;;;;;;;;0.80;99.90;;;;;;2057627;28;20021;-73
2023/04/05 05:02:15;;;;;;;;;;;0.80;99.90;;;;;;2066253;28;19905;-73
2023/04/05 05:03:16;;;;;;;;;;;0.80;99.90;;;;;;2067005;28;19913;-73
2023/04/05 05:04:16;;;;;;;;;;;0.80;99.90;;;;;;2058558;28;19910;-73
2023/04/05 05:05:17;;;;;;;;;;;0.80;99.90;;;;;;2060770;28;19906;-73
2023/04/05 05:06:28;;;;;;;;;;;0.80;99.90;;;;;;2060400;28;19914;-73
2023/04/05 05:07:29;;;;;;;;;;;0.80;99.90;;;;;;2059622;28;19914;-73
2023/04/05 05:08:29;;;;;;;;;;;0.80;99.90;;;;;;2059383;28;20354;-73
2023/04/05 05:09:30;;;;;;;;;;;0.80;99.90;;;;;;2072983;28;19913;-73
2023/04/05 05:10:30;;;;;;;;;;;0.80;99.90;;;;;;2073868;28;20562;-73
2023/04/05 05:11:31;;;;;;;;;;;0.80;99.90;;;;;;2060242;28;20293;-73
2023/04/05 05:12:32;;;;;;;;;;;0.80;99.90;;;;;;2058754;28;19909;-73
2023/04/05 05:13:32;;;;;;;;;;;0.80;99.90;;;;;;2060013;28;19957;-73
2023/04/05 05:14:32;;;;;;;;;;;0.80;99.90;;;;;;2058024;28;19914;-73
2023/04/05 05:15:33;;;;;;;;;;;0.80;99.90;;;;;;2061377;28;20517;-73
2023/04/05 05:16:34;;;;;;;;;;;0.80;99.90;;;;;;2060470;28;19916;-73
2023/04/05 05:17:34;;;;;;;;;;;0.80;99.90;;;;;;2058137;28;19918;-73
2023/04/05 05:18:35;;;;;;;;;;;0.80;99.90;;;;;;2060252;28;19920;-73
2023/04/05 05:19:35;;;;;;;;;;;0.80;99.90;;;;;;2059749;28;19917;-72
2023/04/05 05:20:36;;;;;;;;;;;0.80;99.90;;;;;;2073976;28;19967;-72
2023/04/05 05:21:36;;;;;;;;;;;0.80;99.90;;;;;;2072779;28;19917;-73
2023/04/05 05:22:37;;;;;;;;;;;0.80;99.90;;;;;;2065926;28;19909;-73
2023/04/05 05:23:38;;;;;;;;;;;0.80;99.90;;;;;;2060441;28;20728;-73
2023/04/05 05:24:38;;;;;;;;;;;0.80;99.90;;;;;;2058504;28;20019;-73
2023/04/05 05:25:38;;;;;;;;;;;0.70;99.90;;;;;;2059907;28;19917;-73
2023/04/05 05:26:39;;;;;;;;;;;0.80;99.90;;;;;;2059132;28;19914;-73
2023/04/05 05:27:40;;;;;;;;;;;0.80;99.90;;;;;;2059140;28;20044;-73
2023/04/05 05:28:40;;;;;;;;;;;0.80;99.90;;;;;;2060618;28;19956;-73
2023/04/05 05:29:41;;;;;;;;;;;0.80;99.90;;;;;;2060066;28;19910;-73
2023/04/05 05:30:41;;;;;;;;;;;0.80;99.90;;;;;;2061148;28;20329;-73
2023/04/05 05:31:41;;;;;;;;;;;0.80;99.90;;;;;;2059888;28;19913;-73
2023/04/05 05:32:42;;;;;;;;;;;0.80;99.90;;;;;;2073458;28;19935;-73
2023/04/05 05:33:46;;;;;;;;;;;0.80;99.90;;;;;;2066759;28;19914;-73
2023/04/05 05:34:47;;;;;;;;;;;0.80;99.90;;;;;;2060375;28;20008;-73
2023/04/05 05:35:48;;;;;;;;;;;0.80;99.90;;;;;;2059462;28;19910;-73
2023/04/05 05:36:51;;;;;;;;;;;0.80;99.90;;;;;;2060270;28;19973;-73
2023/04/05 05:37:51;;;;;;;;;;;0.80;99.90;;;;;;2058708;28;20328;-73
2023/04/05 05:38:52;;;;;;;;;;;0.80;99.90;;;;;;2060610;28;20235;-73
2023/04/05 05:39:53;;;;;;;;;;;0.80;99.90;;;;;;2057097;28;20475;-73
2023/04/05 05:40:54;;;;;;;;;;;0.80;99.90;;;;;;2060054;28;20277;-73
2023/04/05 05:41:54;;;;;;;;;;;0.80;99.90;;;;;;2064826;28;19996;-73
2023/04/05 05:42:55;;;;;;;;;;;0.80;99.90;;;;;;2063389;28;20377;-73
2023/04/05 05:43:55;;;;;;;;;;;0.80;99.90;;;;;;2060697;28;19917;-73
2023/04/05 05:44:56;;;;;;;;;;;0.80;99.90;;;;;;2058392;28;19957;-72
2023/04/05 05:45:59;;;;;;;;;;;0.80;99.90;;;;;;2075497;28;19914;-73
2023/04/05 05:47:00;;;;;;;;;;;0.80;99.90;;;;;;2073915;28;19909;-73
2023/04/05 05:48:00;;;;;;;;;;;0.80;99.90;;;;;;2060273;28;19928;-73
2023/04/05 05:49:01;;;;;;;;;;;0.80;99.90;;;;;;2061021;28;19913;-73
2023/04/05 05:50:02;;;;;;;;;;;0.80;99.90;;;;;;2062226;28;20640;-73
2023/04/05 05:51:08;;;;;;;;;;;0.80;99.90;;;;;;2061582;28;19914;-73
2023/04/05 05:52:09;;;;;;;;;;;0.80;99.90;;;;;;2073326;28;20008;-73
2023/04/05 05:53:09;;;;;;;;;;;0.80;99.90;;;;;;2074213;28;19913;-73
2023/04/05 05:54:09;;;;;;;;;;;0.80;99.90;;;;;;2066690;28;19940;-73
2023/04/05 05:55:10;;;;;;;;;;;0.90;99.90;;;;;;2067804;28;20456;-73
2023/04/05 05:56:10;;;;;;;;;;;0.90;99.90;;;;;;2073195;28;19913;-73
2023/04/05 05:57:11;;;;;;;;;;;0.90;99.90;;;;;;2075921;28;20389;-72
2023/04/05 05:58:12;;;;;;;;;;;0.90;99.90;;;;;;2060680;28;20324;-72
2023/04/05 05:59:12;;;;;;;;;;;1.00;99.90;;;;;;2058211;28;19909;-72
2023/04/05 06:00:13;;;;;;;;;;;1.00;99.90;;;;;;2058230;28;19957;-72
2023/04/05 06:01:13;;;;;;;;;;;1.10;99.90;;;;;;2060556;28;19914;-72
2023/04/05 06:02:14;;;;;;;;;;;1.10;99.90;;;;;;2057720;28;20381;-72
2023/04/05 06:03:15;;;;;;;;;;;1.10;99.90;;;;;;2059804;28;19920;-72
2023/04/05 06:04:16;;;;;;;;;;;1.20;99.90;;;;;;2057525;28;19913;-72
2023/04/05 06:05:16;;;;;;;;;;;1.20;99.90;;;;;;2060618;28;19916;-72